CPX13 Details

Departure: Incheon International Airport (RKSI)
Arrival: Ted Stevens Anchorage International Airport (PANC)
Route: EGOBA1L EGOBA G597 KAE G597 LANAT Y51 KAGIS A590 SELDM A590 PORGE A590 HAMND NEELL6


Current Weather Information
RKSI 212230Z 17007KT CAVOK 15/09 Q1006 NOSIG
PANC 212253Z 29005KT 10SM FEW045 SCT200 13/06 A3006 RMK AO2 SLP180 T01330061 $